createdAt,value
2023-05-16T00:03:28.487Z,75.60
2023-05-16T00:08:31.420Z,75.60
2023-05-16T00:13:33.557Z,75.40
2023-05-16T00:18:39.360Z,75.10
2023-05-16T00:23:41.447Z,75.20
2023-05-16T00:28:43.525Z,74.70
2023-05-16T00:33:45.650Z,74.20
2023-05-16T00:38:47.909Z,75.00
2023-05-16T00:43:50.362Z,75.50
2023-05-16T00:48:52.826Z,75.00
2023-05-16T00:53:57.012Z,75.20
2023-05-16T00:58:59.717Z,75.20
2023-05-16T01:04:02.411Z,75.50
2023-05-16T01:09:06.080Z,75.90
2023-05-16T01:14:49.615Z,75.80
2023-05-16T01:20:17.600Z,77.10
2023-05-16T01:26:07.678Z,77.00
2023-05-16T01:31:09.853Z,76.60
2023-05-16T01:36:40.999Z,75.90
2023-05-16T01:42:12.895Z,76.70
2023-05-16T01:47:19.627Z,75.90
2023-05-16T01:52:45.328Z,76.00
2023-05-16T01:57:50.622Z,76.30
2023-05-16T02:02:53.018Z,76.40
2023-05-16T02:07:55.777Z,77.00
2023-05-16T02:12:58.079Z,77.70
2023-05-16T02:18:00.274Z,77.30
2023-05-16T02:23:03.468Z,77.50
2023-05-16T02:28:07.593Z,79.50
2023-05-16T02:33:11.611Z,79.40
2023-05-16T02:38:17.605Z,78.70
2023-05-16T02:43:19.813Z,79.10
2023-05-16T02:48:22.393Z,78.20
2023-05-16T02:53:24.752Z,78.70
2023-05-16T02:58:26.951Z,78.40
2023-05-16T03:03:30.199Z,79.30
2023-05-16T03:08:32.759Z,79.10
2023-05-16T03:13:34.936Z,78.70
2023-05-16T03:18:37.308Z,79.00
2023-05-16T03:23:39.651Z,77.90
2023-05-16T03:28:41.917Z,78.80
2023-05-16T03:33:44.210Z,80.20
2023-05-16T03:38:46.333Z,80.70
2023-05-16T03:43:48.442Z,79.90
2023-05-16T03:48:50.616Z,79.70
2023-05-16T03:53:52.970Z,80.10
2023-05-16T03:58:55.330Z,80.60
2023-05-16T04:03:57.451Z,81.50
2023-05-16T04:08:59.572Z,81.00
2023-05-16T04:14:02.021Z,81.00
2023-05-16T04:19:04.499Z,82.70
2023-05-16T04:24:07.760Z,83.40
2023-05-16T04:29:10.321Z,82.90
2023-05-16T04:34:13.321Z,81.90
2023-05-16T04:39:15.628Z,82.00
2023-05-16T04:44:17.870Z,82.60
2023-05-16T04:49:20.684Z,82.00
2023-05-16T04:54:23.078Z,82.70
2023-05-16T04:59:25.802Z,81.80
2023-05-16T05:04:27.965Z,81.70
2023-05-16T05:09:30.151Z,81.50
2023-05-16T05:14:32.265Z,80.90
2023-05-16T05:19:34.481Z,80.40
2023-05-16T05:24:37.197Z,80.50
2023-05-16T05:29:40.471Z,80.60
2023-05-16T05:34:42.585Z,80.40
2023-05-16T05:39:45.278Z,79.50
2023-05-16T05:44:47.423Z,81.00
2023-05-16T05:49:50.551Z,81.80
2023-05-16T05:54:52.988Z,79.80
2023-05-16T05:59:55.477Z,80.50
2023-05-16T06:04:57.706Z,81.00
2023-05-16T06:10:05.274Z,80.80
2023-05-16T06:15:08.706Z,80.00
2023-05-16T06:20:11.981Z,80.80
2023-05-16T06:25:14.189Z,80.70
2023-05-16T06:30:16.319Z,79.80
2023-05-16T06:35:18.638Z,80.20
2023-05-16T06:40:21.070Z,80.40
2023-05-16T06:45:23.516Z,80.80
2023-05-16T06:50:28.525Z,81.20
2023-05-16T06:55:30.963Z,84.30
2023-05-16T07:00:33.305Z,79.50
2023-05-16T07:05:35.556Z,82.70
2023-05-16T07:10:37.929Z,80.50
2023-05-16T07:15:40.139Z,79.50
2023-05-16T07:20:42.397Z,79.00
2023-05-16T07:25:44.950Z,79.50
2023-05-16T07:30:47.449Z,81.80
2023-05-16T07:35:51.122Z,81.30
2023-05-16T07:40:54.224Z,79.90
2023-05-16T07:45:56.799Z,79.50
2023-05-16T07:50:59.187Z,80.60
2023-05-16T07:56:01.534Z,79.40
2023-05-16T08:01:03.994Z,81.10
2023-05-16T08:06:06.693Z,78.90
2023-05-16T08:11:09.051Z,78.50
2023-05-16T08:16:12.091Z,79.20
2023-05-16T08:21:14.783Z,78.70
2023-05-16T08:26:18.519Z,78.90
2023-05-16T08:31:21.462Z,76.40
2023-05-16T08:36:26.652Z,79.40
2023-05-16T08:41:29.547Z,79.50
2023-05-16T08:46:36.967Z,78.40
2023-05-16T08:51:40.453Z,77.60
2023-05-16T08:56:44.483Z,78.50
2023-05-16T09:01:47.758Z,78.30
2023-05-16T09:06:51.257Z,78.30
2023-05-16T09:11:53.709Z,78.50
2023-05-16T09:17:10.223Z,77.40
2023-05-16T09:22:15.970Z,77.30
2023-05-16T09:27:18.563Z,78.10
2023-05-16T09:32:21.049Z,78.80
2023-05-16T09:37:23.372Z,76.60
2023-05-16T09:42:26.219Z,78.50
2023-05-16T09:47:29.072Z,76.40
2023-05-16T09:52:31.401Z,75.00
2023-05-16T09:57:33.716Z,77.30
2023-05-16T10:02:38.859Z,76.10
2023-05-16T10:07:43.166Z,75.30
2023-05-16T10:12:46.243Z,70.10
2023-05-16T10:17:53.804Z,73.90
2023-05-16T10:22:58.648Z,73.40
2023-05-16T10:28:02.773Z,73.20
2023-05-16T10:33:05.315Z,74.00
2023-05-16T10:38:12.161Z,73.80
2023-05-16T10:43:28.110Z,72.20
2023-05-16T10:48:36.502Z,73.40
2023-05-16T10:53:38.626Z,73.30
2023-05-16T10:58:46.637Z,74.30
2023-05-16T11:03:57.925Z,74.20
2023-05-16T11:09:06.111Z,75.20
2023-05-16T11:14:08.839Z,75.50
2023-05-16T11:19:11.170Z,76.50
2023-05-16T11:24:30.383Z,76.80
2023-05-16T11:29:36.715Z,77.00
2023-05-16T11:34:39.838Z,78.40
2023-05-16T11:39:42.368Z,77.90
2023-05-16T11:44:45.481Z,76.80
2023-05-16T11:49:49.558Z,78.20
2023-05-16T11:54:52.166Z,77.80
2023-05-16T11:59:54.989Z,77.60
2023-05-16T12:04:57.351Z,78.10
2023-05-16T12:09:59.621Z,77.30
2023-05-16T12:15:04.621Z,79.40
2023-05-16T12:20:13.658Z,77.40
2023-05-16T12:25:28.979Z,75.70
2023-05-16T12:30:33.399Z,77.50
2023-05-16T12:35:39.697Z,78.10
2023-05-16T12:40:44.355Z,76.80
2023-05-16T12:45:55.213Z,77.00
2023-05-16T12:50:57.649Z,76.70
2023-05-16T12:55:59.877Z,75.30
2023-05-16T13:01:02.370Z,76.40
2023-05-16T13:06:05.102Z,78.40
2023-05-16T13:11:07.419Z,76.80
2023-05-16T13:16:10.512Z,76.70
2023-05-16T13:21:12.851Z,76.30
2023-05-16T13:26:15.207Z,75.80
2023-05-16T13:31:17.613Z,75.60
2023-05-16T13:36:19.951Z,72.50
2023-05-16T13:41:22.690Z,73.70
2023-05-16T13:46:25.364Z,73.60
2023-05-16T13:51:27.703Z,73.80
2023-05-16T13:56:29.861Z,74.30
2023-05-16T14:01:32.109Z,73.90
2023-05-16T14:06:34.497Z,74.90
2023-05-16T14:11:36.689Z,73.80
2023-05-16T14:16:39.236Z,75.30
2023-05-16T14:21:41.749Z,74.50
2023-05-16T14:26:44.038Z,73.50
2023-05-16T14:31:47.376Z,73.60
2023-05-16T14:36:49.768Z,73.70
2023-05-16T14:41:52.591Z,76.40
2023-05-16T14:46:55.720Z,75.70
2023-05-16T14:51:58.044Z,73.80
2023-05-16T14:57:00.434Z,71.60
2023-05-16T15:02:02.791Z,76.40
2023-05-16T15:07:05.299Z,72.60
2023-05-16T15:12:08.326Z,69.60
2023-05-16T15:17:10.961Z,70.00
2023-05-16T15:22:13.337Z,70.10
2023-05-16T15:27:15.991Z,70.30
2023-05-16T15:32:18.755Z,69.60
2023-05-16T15:37:21.553Z,71.70
2023-05-16T15:42:23.850Z,70.40
2023-05-16T15:47:27.631Z,73.40
2023-05-16T15:52:29.792Z,71.10
2023-05-16T15:57:32.095Z,72.20
2023-05-16T16:02:34.478Z,71.10
2023-05-16T16:07:36.885Z,70.60
2023-05-16T16:12:40.201Z,72.60
2023-05-16T16:17:42.428Z,72.70
2023-05-16T16:22:44.642Z,70.80
2023-05-16T16:27:46.783Z,73.20
2023-05-16T16:32:49.179Z,71.10
2023-05-16T16:38:05.706Z,73.10
2023-05-16T16:43:09.437Z,72.10
2023-05-16T16:48:11.978Z,68.60
2023-05-16T16:53:14.298Z,72.70
2023-05-16T16:58:16.458Z,71.30
2023-05-16T17:03:19.066Z,69.20
2023-05-16T17:08:21.799Z,67.40
2023-05-16T17:13:24.133Z,69.20
2023-05-16T17:18:27.001Z,65.30
2023-05-16T17:23:29.186Z,67.90
2023-05-16T17:28:32.697Z,72.10
2023-05-16T17:33:34.997Z,71.00
2023-05-16T17:38:37.196Z,68.50
2023-05-16T17:43:39.473Z,70.50
2023-05-16T17:48:42.400Z,68.60
2023-05-16T17:53:45.292Z,69.30
2023-05-16T17:58:47.520Z,71.30
2023-05-16T18:03:50.100Z,64.60
2023-05-16T18:08:52.388Z,63.70
2023-05-16T18:13:54.962Z,66.60
2023-05-16T18:18:58.473Z,66.10
2023-05-16T18:24:00.918Z,66.10
2023-05-16T18:29:03.829Z,66.00
2023-05-16T18:34:05.971Z,64.70
2023-05-16T18:39:10.781Z,65.70
2023-05-16T18:44:13.547Z,64.40
2023-05-16T18:49:16.372Z,69.40
2023-05-16T18:54:18.503Z,63.50
2023-05-16T18:59:21.330Z,63.10
2023-05-16T19:04:23.976Z,77.20
2023-05-16T19:09:26.558Z,77.50
2023-05-16T19:14:28.798Z,74.40
2023-05-16T19:19:31.526Z,73.60
2023-05-16T19:24:33.831Z,73.00
2023-05-16T19:29:36.271Z,71.80
2023-05-16T19:34:38.480Z,74.20
2023-05-16T19:39:40.800Z,72.50
2023-05-16T19:44:43.251Z,69.80
2023-05-16T19:49:45.741Z,70.80
2023-05-16T19:54:47.944Z,72.10
2023-05-16T19:59:52.719Z,70.30
2023-05-16T20:04:55.345Z,71.20
2023-05-16T20:09:57.715Z,69.20
2023-05-16T20:15:00.128Z,70.30
2023-05-16T20:20:02.971Z,69.30
2023-05-16T20:25:10.531Z,70.80
2023-05-16T20:30:13.560Z,69.20
2023-05-16T20:35:16.129Z,70.10
2023-05-16T20:40:18.496Z,69.00
2023-05-16T20:45:21.074Z,70.00
2023-05-16T20:50:23.262Z,70.10
2023-05-16T20:55:26.716Z,67.80
2023-05-16T21:00:29.190Z,68.50
2023-05-16T21:05:33.735Z,69.70
2023-05-16T21:10:36.047Z,69.00
2023-05-16T21:15:38.645Z,68.90
2023-05-16T21:20:40.857Z,68.60
2023-05-16T21:25:43.021Z,69.10
2023-05-16T21:30:45.216Z,67.40
2023-05-16T21:35:47.436Z,66.50
2023-05-16T21:40:49.634Z,68.50
2023-05-16T21:45:51.957Z,68.20
2023-05-16T21:50:54.319Z,68.10
2023-05-16T21:55:56.894Z,68.30
2023-05-16T22:00:59.077Z,68.30
2023-05-16T22:06:01.616Z,67.30
2023-05-16T22:11:03.816Z,66.30
2023-05-16T22:16:06.860Z,68.20
2023-05-16T22:21:09.040Z,68.70
2023-05-16T22:26:11.304Z,67.80
2023-05-16T22:31:13.599Z,68.20
2023-05-16T22:36:15.909Z,68.50
2023-05-16T22:41:18.183Z,65.60
2023-05-16T22:46:23.145Z,67.00
2023-05-16T22:51:25.825Z,67.50
2023-05-16T22:56:28.121Z,63.60
2023-05-16T23:01:30.644Z,67.70
2023-05-16T23:06:32.909Z,67.40
2023-05-16T23:11:35.302Z,68.10
2023-05-16T23:16:37.635Z,68.10
2023-05-16T23:21:40.154Z,67.60
2023-05-16T23:26:42.414Z,68.00
2023-05-16T23:31:45.569Z,68.30
2023-05-16T23:36:47.671Z,66.90
2023-05-16T23:41:49.791Z,68.20
2023-05-16T23:46:51.988Z,65.40
2023-05-16T23:51:57.863Z,68.10
2023-05-16T23:57:00.915Z,67.40
